Time;durP1;ratioP1;P1;durP2;ratioP2;P2;SDS_P1;SDS_P2;PMS_P1;PMS_P2;Temp;Humidity;BMP_temperature;BMP_pressure;BME280_temperature;BME280_humidity;BME280_pressure;Samples;Min_cycle;Max_cycle;Signal;HPM_P1;HPM_P2
2023/10/12 00:01:01;;;;;;;9.00;4.27;;;17.10;64.50;;;;;;2086505;28;20461;-86
2023/10/12 00:02:09;;;;;;;7.63;3.93;;;17.10;64.30;;;;;;2083245;28;20462;-87
2023/10/12 00:03:12;;;;;;;6.70;4.03;;;17.10;64.20;;;;;;2073635;28;20518;-86
2023/10/12 00:04:12;;;;;;;7.10;4.10;;;17.10;64.30;;;;;;2081294;28;20422;-85
2023/10/12 00:05:17;;;;;;;9.43;3.90;;;17.10;64.50;;;;;;2082234;28;20461;-86
2023/10/12 00:06:18;;;;;;;8.77;4.30;;;17.00;64.30;;;;;;2084737;28;20192;-86
2023/10/12 00:07:36;;;;;;;8.60;3.93;;;16.80;65.10;;;;;;2092359;28;20420;-86
2023/10/12 00:08:37;;;;;;;7.83;4.27;;;16.90;65.50;;;;;;2080146;28;20473;-86
2023/10/12 00:09:37;;;;;;;7.23;4.50;;;16.80;66.10;;;;;;2080232;28;20504;-85
2023/10/12 00:10:42;;;;;;;4.67;3.80;;;16.80;65.90;;;;;;2091154;28;20228;-85
2023/10/12 00:11:54;;;;;;;6.07;4.00;;;16.90;65.20;;;;;;2086731;28;20236;-86
2023/10/12 00:12:59;;;;;;;9.83;4.20;;;17.00;64.90;;;;;;2078822;28;20473;-85
2023/10/12 00:14:00;;;;;;;6.00;3.80;;;17.00;64.60;;;;;;2076693;28;20462;-85
2023/10/12 00:15:05;;;;;;;9.23;4.23;;;17.00;64.90;;;;;;2080876;28;20469;-85
2023/10/12 00:16:06;;;;;;;5.33;3.80;;;16.80;64.80;;;;;;2081575;28;20221;-86
2023/10/12 00:17:07;;;;;;;9.03;4.20;;;16.80;65.20;;;;;;2077415;28;20425;-85
2023/10/12 00:18:08;;;;;;;7.53;4.60;;;16.80;65.40;;;;;;2086519;28;20421;-85
2023/10/12 00:19:12;;;;;;;7.70;4.03;;;16.80;64.70;;;;;;2079564;28;20442;-86
2023/10/12 00:20:21;;;;;;;9.83;3.60;;;16.80;64.80;;;;;;2079014;28;20501;-86
2023/10/12 00:21:25;;;;;;;5.37;3.73;;;16.80;65.60;;;;;;2087725;28;20483;-86
2023/10/12 00:22:26;;;;;;;6.70;3.87;;;16.70;65.10;;;;;;2079657;28;20498;-87
2023/10/12 00:23:26;;;;;;;7.40;3.80;;;16.60;65.30;;;;;;2094820;28;20476;-87
2023/10/12 00:24:28;;;;;;;7.73;4.20;;;16.60;66.30;;;;;;2100203;28;20227;-86
2023/10/12 00:25:34;;;;;;;6.50;3.90;;;16.50;66.20;;;;;;2093662;28;20228;-86
2023/10/12 00:26:34;;;;;;;5.07;3.40;;;16.50;65.90;;;;;;2081385;28;20486;-85
2023/10/12 00:27:40;;;;;;;9.20;4.10;;;16.50;66.30;;;;;;2085241;28;20470;-86
2023/10/12 00:28:44;;;;;;;7.43;4.00;;;16.50;66.30;;;;;;2083550;28;20254;-86
2023/10/12 00:29:48;;;;;;;7.93;4.03;;;16.50;67.00;;;;;;2086273;28;20519;-85
2023/10/12 00:30:57;;;;;;;9.13;4.00;;;16.50;65.60;;;;;;2068278;28;20464;-85
2023/10/12 00:31:59;;;;;;;6.97;4.10;;;16.60;65.00;;;;;;2070087;28;20482;-86
2023/10/12 00:32:59;;;;;;;7.83;4.07;;;16.60;64.80;;;;;;2080612;28;20454;-85
2023/10/12 00:34:02;;;;;;;4.63;3.50;;;16.60;64.20;;;;;;2084002;28;20541;-85
2023/10/12 00:35:04;;;;;;;6.27;3.87;;;16.50;64.90;;;;;;2075685;28;20228;-85
2023/10/12 00:36:11;;;;;;;6.20;3.77;;;16.50;65.00;;;;;;2080536;28;20468;-86
2023/10/12 00:37:13;;;;;;;7.23;3.80;;;16.40;65.50;;;;;;2081809;28;20427;-85
2023/10/12 00:38:18;;;;;;;5.87;3.83;;;16.40;66.00;;;;;;2075844;28;21020;-85
2023/10/12 00:39:29;;;;;;;6.60;3.77;;;16.50;65.60;;;;;;2084616;28;20417;-85
2023/10/12 00:40:31;;;;;;;7.13;3.90;;;16.50;65.20;;;;;;2092632;28;21010;-86
2023/10/12 00:41:35;;;;;;;5.90;3.90;;;16.50;64.20;;;;;;2089294;28;21026;-86
2023/10/12 00:42:37;;;;;;;6.90;4.23;;;16.50;64.30;;;;;;2089493;28;20470;-85
2023/10/12 00:45:19;;;;;;;6.37;3.53;;;16.40;65.10;;;;;;2078683;28;20454;-85
2023/10/12 00:47:43;;;;;;;9.53;4.20;;;16.50;65.30;;;;;;2085238;28;20461;-85
2023/10/12 00:48:49;;;;;;;7.50;3.87;;;16.40;65.50;;;;;;2077074;28;20512;-85
2023/10/12 00:49:50;;;;;;;7.00;3.53;;;16.40;65.30;;;;;;2079192;28;20467;-85
2023/10/12 00:50:50;;;;;;;9.20;3.50;;;16.40;64.50;;;;;;2078743;28;20463;-85
2023/10/12 00:51:54;;;;;;;6.13;3.60;;;16.40;63.90;;;;;;2067063;28;20320;-85
2023/10/12 00:52:59;;;;;;;8.23;3.87;;;16.40;63.40;;;;;;2076299;28;20633;-86
2023/10/12 00:54:03;;;;;;;6.77;3.67;;;16.40;63.30;;;;;;2076764;28;21102;-86
2023/10/12 00:55:21;;;;;;;6.57;3.57;;;16.40;62.90;;;;;;2075222;28;20478;-85
2023/10/12 00:56:24;;;;;;;7.60;3.73;;;16.40;62.70;;;;;;2084539;28;20450;-85
2023/10/12 00:57:24;;;;;;;7.73;3.73;;;16.50;62.60;;;;;;2090517;28;20457;-86
2023/10/12 00:58:25;;;;;;;5.70;3.53;;;16.50;62.60;;;;;;2085950;28;20466;-85
2023/10/12 00:59:27;;;;;;;5.80;3.60;;;16.50;61.50;;;;;;2084589;28;20259;-85
2023/10/12 01:00:27;;;;;;;6.27;3.47;;;16.50;61.00;;;;;;2085594;28;20689;-85
2023/10/12 01:01:31;;;;;;;7.07;3.43;;;16.50;60.40;;;;;;2078189;28;20541;-85
2023/10/12 01:02:39;;;;;;;5.20;3.73;;;16.50;61.30;;;;;;2077740;28;20297;-85
2023/10/12 01:03:45;;;;;;;6.40;3.43;;;16.50;60.90;;;;;;2077158;28;20459;-85
2023/10/12 01:04:48;;;;;;;6.20;3.43;;;16.50;60.40;;;;;;2083280;28;20462;-85
2023/10/12 01:06:06;;;;;;;8.57;4.00;;;16.60;60.70;;;;;;2091476;28;20461;-86
2023/10/12 01:07:19;;;;;;;7.40;3.77;;;16.60;59.60;;;;;;2081202;28;20441;-86
2023/10/12 01:08:20;;;;;;;7.90;3.50;;;16.60;59.90;;;;;;2072805;28;20473;-86
2023/10/12 01:09:20;;;;;;;6.13;3.37;;;16.60;59.20;;;;;;2083782;28;20836;-85
2023/10/12 01:10:28;;;;;;;9.33;3.50;;;16.60;59.10;;;;;;2085511;28;20308;-86
2023/10/12 01:11:33;;;;;;;5.33;3.40;;;16.70;59.40;;;;;;2071635;28;20263;-86
2023/10/12 01:12:34;;;;;;;7.47;3.83;;;16.70;59.00;;;;;;2078056;28;20545;-86
2023/10/12 01:13:35;;;;;;;5.20;3.53;;;16.80;58.60;;;;;;2081076;28;20465;-86
2023/10/12 01:14:39;;;;;;;4.97;3.43;;;16.80;58.40;;;;;;2080549;28;20823;-85
2023/10/12 01:15:40;;;;;;;5.77;3.53;;;16.70;58.90;;;;;;2077451;28;20542;-85
2023/10/12 01:17:44;;;;;;;7.27;3.90;;;16.70;59.00;;;;;;2084498;28;20225;-86
2023/10/12 01:18:45;;;;;;;7.40;3.90;;;16.70;58.70;;;;;;2082374;28;20526;-85
2023/10/12 01:19:46;;;;;;;8.67;3.87;;;16.80;58.40;;;;;;2082473;28;20217;-85
2023/10/12 01:20:49;;;;;;;9.30;4.00;;;16.80;58.20;;;;;;2091831;28;20692;-85
2023/10/12 01:21:58;;;;;;;5.47;3.43;;;16.80;58.00;;;;;;2072205;28;20694;-85
2023/10/12 01:22:59;;;;;;;5.93;3.50;;;16.70;58.60;;;;;;2071899;28;20982;-85
2023/10/12 01:24:04;;;;;;;8.57;3.80;;;16.70;58.30;;;;;;2085497;28;20529;-84
2023/10/12 01:25:19;;;;;;;8.20;3.87;;;16.80;58.30;;;;;;2077976;28;20533;-86
2023/10/12 01:26:20;;;;;;;6.10;3.97;;;16.60;58.80;;;;;;2083700;28;20972;-85
2023/10/12 01:27:21;;;;;;;8.43;3.63;;;16.60;58.90;;;;;;2083733;28;20564;-86
2023/10/12 01:28:22;;;;;;;7.90;3.77;;;16.60;60.20;;;;;;2091613;28;20247;-85
2023/10/12 01:29:25;;;;;;;6.57;3.80;;;16.60;58.90;;;;;;2078366;28;20498;-86
2023/10/12 01:30:27;;;;;;;7.47;3.60;;;16.60;58.70;;;;;;2065560;28;20297;-85
2023/10/12 01:31:29;;;;;;;7.23;3.50;;;16.60;59.10;;;;;;2067656;28;20999;-85
2023/10/12 01:32:36;;;;;;;5.17;3.80;;;16.70;59.10;;;;;;2080092;28;20569;-86
2023/10/12 01:33:41;;;;;;;8.57;3.87;;;16.70;60.10;;;;;;2079153;28;20569;-85
2023/10/12 01:34:52;;;;;;;4.83;3.50;;;16.70;59.20;;;;;;2074490;28;20455;-85
2023/10/12 01:35:53;;;;;;;6.80;4.07;;;16.60;59.30;;;;;;2074203;28;20458;-85
2023/10/12 01:36:55;;;;;;;7.13;3.80;;;16.60;59.80;;;;;;2083687;28;20541;-85
2023/10/12 01:38:00;;;;;;;11.10;3.60;;;16.60;60.30;;;;;;2077474;28;20267;-85
2023/10/12 01:39:14;;;;;;;6.73;3.73;;;16.50;60.70;;;;;;2075209;28;20469;-85
2023/10/12 01:40:18;;;;;;;6.40;3.80;;;16.50;61.70;;;;;;2081566;28;20449;-86
2023/10/12 01:41:25;;;;;;;6.00;4.17;;;16.40;62.60;;;;;;2090757;28;20458;-85
2023/10/12 01:43:47;;;;;;;5.00;3.70;;;16.40;62.60;;;;;;2089417;28;20979;-86
2023/10/12 01:44:51;;;;;;;7.97;3.53;;;16.50;62.70;;;;;;2088316;28;20997;-85
2023/10/12 01:45:59;;;;;;;7.53;4.07;;;16.40;63.60;;;;;;2088448;28;20456;-85
2023/10/12 01:47:00;;;;;;;6.23;3.70;;;16.40;62.40;;;;;;2085600;28;20472;-85
2023/10/12 01:48:08;;;;;;;9.60;3.77;;;16.40;62.80;;;;;;2080547;28;20967;-85
2023/10/12 01:49:10;;;;;;;6.57;3.67;;;16.40;62.90;;;;;;2088136;28;20723;-84
2023/10/12 01:50:11;;;;;;;8.43;3.90;;;16.40;63.40;;;;;;2088450;28;20437;-86
2023/10/12 01:51:16;;;;;;;8.10;4.00;;;16.40;63.70;;;;;;2085801;28;20445;-86
2023/10/12 01:52:19;;;;;;;6.23;4.00;;;16.40;64.30;;;;;;2088244;28;20228;-85
2023/10/12 01:54:24;;;;;;;7.40;3.97;;;16.30;65.30;;;;;;2090347;28;20418;-85
2023/10/12 01:55:29;;;;;;;7.50;3.80;;;16.30;65.60;;;;;;2089545;28;20228;-85
2023/10/12 01:56:31;;;;;;;5.03;3.30;;;16.30;65.80;;;;;;2089738;28;20516;-85
2023/10/12 01:57:36;;;;;;;10.07;3.93;;;16.40;65.60;;;;;;2086681;28;20464;-85
2023/10/12 01:58:43;;;;;;;7.40;4.07;;;16.40;65.40;;;;;;2087925;28;20465;-85
2023/10/12 01:59:44;;;;;;;5.93;3.60;;;16.40;65.60;;;;;;2064870;28;20480;-85
2023/10/12 02:00:51;;;;;;;6.77;4.03;;;16.40;65.80;;;;;;2068599;28;20503;-85
2023/10/12 02:02:07;;;;;;;7.63;3.87;;;16.40;65.60;;;;;;2069993;28;20735;-86
2023/10/12 02:03:20;;;;;;;6.93;3.30;;;16.40;66.30;;;;;;2082204;28;20449;-85
2023/10/12 02:04:21;;;;;;;6.07;4.10;;;16.40;66.20;;;;;;2090286;28;20429;-86
2023/10/12 02:05:24;;;;;;;8.87;3.73;;;16.40;66.80;;;;;;2087295;28;20499;-86
2023/10/12 02:06:28;;;;;;;7.97;4.17;;;16.30;67.00;;;;;;2088014;28;20460;-85
2023/10/12 02:07:29;;;;;;;7.70;4.63;;;16.40;67.40;;;;;;2081101;28;20469;-85
2023/10/12 02:08:40;;;;;;;9.10;4.20;;;16.40;67.10;;;;;;2084319;28;20580;-85
2023/10/12 02:09:41;;;;;;;7.70;4.60;;;16.40;67.30;;;;;;2083167;28;20245;-85
2023/10/12 02:10:54;;;;;;;9.70;4.40;;;16.40;67.80;;;;;;2084978;28;20477;-85
2023/10/12 02:11:55;;;;;;;7.03;4.00;;;16.40;68.10;;;;;;2078207;28;20481;-85
2023/10/12 02:12:55;;;;;;;6.87;4.23;;;16.40;68.20;;;;;;2074217;28;20490;-85
2023/10/12 02:14:00;;;;;;;7.50;3.90;;;16.30;68.40;;;;;;2074374;28;20717;-86
2023/10/12 02:15:04;;;;;;;7.37;3.80;;;16.40;68.40;;;;;;2078147;28;20243;-85
2023/10/12 02:16:12;;;;;;;8.03;3.90;;;16.40;68.20;;;;;;2072051;28;20585;-85
2023/10/12 02:17:13;;;;;;;9.17;4.00;;;16.30;68.40;;;;;;2082262;28;20876;-85
2023/10/12 02:18:15;;;;;;;8.00;4.13;;;16.40;69.30;;;;;;2088558;28;20484;-86
2023/10/12 02:19:31;;;;;;;11.17;3.97;;;16.30;70.30;;;;;;2083554;28;20185;-85
2023/10/12 02:20:38;;;;;;;9.80;4.03;;;16.30;70.90;;;;;;2087060;28;20479;-85
2023/10/12 02:21:40;;;;;;;9.23;4.03;;;16.30;71.50;;;;;;2089733;28;20539;-86
2023/10/12 02:22:41;;;;;;;7.30;4.00;;;16.20;71.90;;;;;;2090123;28;20482;-85
2023/10/12 02:23:57;;;;;;;6.53;4.47;;;16.20;71.80;;;;;;2090191;28;20466;-87
2023/10/12 02:25:19;;;;;;;7.40;4.07;;;16.20;73.50;;;;;;2092173;28;20275;-87
2023/10/12 02:26:34;;;;;;;7.30;4.23;;;16.40;73.10;;;;;;2090374;28;20454;-85
2023/10/12 02:27:39;;;;;;;7.47;4.17;;;16.30;73.30;;;;;;2089086;28;20468;-85
2023/10/12 02:28:40;;;;;;;6.63;3.97;;;16.30;73.00;;;;;;2092485;28;20468;-86
2023/10/12 02:29:40;;;;;;;9.27;4.00;;;16.30;73.00;;;;;;2079137;28;20504;-85
2023/10/12 02:30:43;;;;;;;11.47;4.40;;;16.30;72.90;;;;;;2075383;28;20574;-85
2023/10/12 02:33:00;;;;;;;10.67;4.50;;;16.40;73.20;;;;;;2081148;28;20462;-85
2023/10/12 02:34:02;;;;;;;6.50;4.10;;;16.30;73.60;;;;;;2091307;28;20465;-85
2023/10/12 02:35:11;;;;;;;7.67;4.30;;;16.40;73.60;;;;;;2084273;28;20917;-85
2023/10/12 02:36:13;;;;;;;8.03;4.53;;;16.30;73.80;;;;;;2071710;28;20427;-85
2023/10/12 02:38:15;;;;;;;7.60;4.07;;;16.40;73.70;;;;;;2079624;28;20475;-85
2023/10/12 02:39:21;;;;;;;6.53;4.23;;;16.40;73.80;;;;;;2089774;28;20176;-85
2023/10/12 02:40:21;;;;;;;9.17;3.80;;;16.40;74.10;;;;;;2091334;28;20409;-85
2023/10/12 02:41:24;;;;;;;6.60;4.10;;;16.40;74.00;;;;;;2091632;28;20473;-86
2023/10/12 02:42:41;;;;;;;10.87;4.20;;;16.40;74.10;;;;;;2092122;28;20232;-86
2023/10/12 02:43:54;;;;;;;10.43;4.30;;;16.40;74.00;;;;;;2076478;28;20474;-85
2023/10/12 02:46:01;;;;;;;8.60;4.37;;;16.30;74.40;;;;;;2084338;28;20472;-85
2023/10/12 02:47:12;;;;;;;7.03;3.90;;;16.40;74.40;;;;;;2076451;28;20454;-85
2023/10/12 02:48:22;;;;;;;8.10;4.40;;;16.40;73.90;;;;;;2071823;28;20427;-85
2023/10/12 02:49:24;;;;;;;10.07;4.30;;;16.50;73.50;;;;;;2078318;28;20533;-85
2023/10/12 02:50:29;;;;;;;8.70;3.90;;;16.50;73.10;;;;;;2064191;28;20464;-85
2023/10/12 02:51:30;;;;;;;10.50;4.47;;;16.60;73.10;;;;;;2072374;28;20471;-85
2023/10/12 02:52:32;;;;;;;7.37;3.70;;;16.60;73.00;;;;;;2078776;28;20469;-86
2023/10/12 02:53:35;;;;;;;7.13;3.97;;;16.60;72.90;;;;;;2081293;28;20468;-85
2023/10/12 02:54:49;;;;;;;10.70;4.43;;;16.50;72.90;;;;;;2085178;28;20982;-85
2023/10/12 02:55:50;;;;;;;8.00;4.13;;;16.60;73.30;;;;;;2087616;28;20467;-85
2023/10/12 02:56:56;;;;;;;8.90;4.10;;;16.50;73.00;;;;;;2089585;28;20984;-85
2023/10/12 02:57:59;;;;;;;7.67;4.27;;;16.50;73.20;;;;;;2093998;28;20216;-85
2023/10/12 02:59:08;;;;;;;5.80;4.27;;;16.60;72.80;;;;;;2081574;28;20453;-86
2023/10/12 03:00:12;;;;;;;11.27;4.67;;;16.50;72.50;;;;;;2074350;28;20460;-85
2023/10/12 03:01:19;;;;;;;8.33;4.07;;;16.50;72.80;;;;;;2078110;28;20453;-85
2023/10/12 03:02:22;;;;;;;7.93;4.20;;;16.50;72.70;;;;;;2073402;28;20455;-85
2023/10/12 03:04:25;;;;;;;9.90;4.50;;;16.60;72.60;;;;;;2079855;28;21061;-85
2023/10/12 03:05:46;;;;;;;7.63;4.10;;;16.50;72.30;;;;;;2072339;28;20474;-85
2023/10/12 03:06:54;;;;;;;10.60;5.10;;;16.50;72.40;;;;;;2071711;28;20579;-85
2023/10/12 03:07:56;;;;;;;9.00;4.00;;;16.50;72.90;;;;;;2076460;28;20548;-85
2023/10/12 03:09:36;;;;;;;9.10;4.50;;;16.50;72.00;;;;;;2081996;28;20470;-86
2023/10/12 03:10:26;;;;;;;9.40;4.30;;;16.60;71.60;;;;;;2084925;28;20825;-85
2023/10/12 03:11:28;;;;;;;7.93;4.00;;;16.70;70.80;;;;;;2073422;28;20522;-85
2023/10/12 03:12:34;;;;;;;6.37;4.00;;;16.60;70.80;;;;;;2073513;28;20474;-85
2023/10/12 03:13:38;;;;;;;6.07;3.90;;;16.60;70.30;;;;;;2081128;28;20541;-85
2023/10/12 03:14:40;;;;;;;8.73;4.23;;;16.70;70.10;;;;;;2069517;28;20475;-85
2023/10/12 03:15:42;;;;;;;5.50;4.17;;;16.70;70.10;;;;;;2076782;28;20563;-85
2023/10/12 03:16:44;;;;;;;12.00;4.47;;;16.70;69.70;;;;;;2085624;28;20545;-85
2023/10/12 03:17:52;;;;;;;10.67;4.50;;;16.80;69.50;;;;;;2073468;28;20475;-85
2023/10/12 03:19:00;;;;;;;6.83;4.10;;;16.70;69.40;;;;;;2083552;28;20546;-85
2023/10/12 03:20:17;;;;;;;7.80;4.33;;;16.70;68.10;;;;;;2084028;28;21008;-85
2023/10/12 03:21:17;;;;;;;6.73;4.23;;;16.70;68.50;;;;;;2079981;28;20481;-85
2023/10/12 03:22:52;;;;;;;6.60;3.87;;;16.80;68.40;;;;;;2079859;28;21028;-85
2023/10/12 03:23:47;;;;;;;8.17;4.27;;;16.60;69.30;;;;;;2077246;28;20301;-85
2023/10/12 03:24:51;;;;;;;6.50;3.50;;;16.50;69.20;;;;;;2084287;28;20462;-86
2023/10/12 03:25:51;;;;;;;8.30;4.27;;;16.50;68.90;;;;;;2068164;28;20459;-85
2023/10/12 03:27:11;;;;;;;5.50;3.80;;;16.50;68.40;;;;;;2076010;28;20467;-86
2023/10/12 03:28:13;;;;;;;7.80;4.00;;;16.60;68.00;;;;;;2081081;28;20274;-86
2023/10/12 03:30:17;;;;;;;7.77;4.37;;;16.70;66.30;;;;;;2084589;28;20456;-85
2023/10/12 03:31:22;;;;;;;8.50;4.30;;;16.80;66.30;;;;;;2077729;28;20232;-85
2023/10/12 03:32:23;;;;;;;8.67;4.20;;;16.80;65.60;;;;;;2085578;28;20473;-86
2023/10/12 03:33:34;;;;;;;11.30;4.17;;;16.70;65.50;;;;;;2086781;28;20518;-86
2023/10/12 03:35:44;;;;;;;10.70;4.10;;;16.70;65.00;;;;;;2086432;28;20492;-85
2023/10/12 03:36:47;;;;;;;7.57;4.00;;;16.80;64.00;;;;;;2076625;28;20263;-85
2023/10/12 03:37:52;;;;;;;5.93;4.23;;;16.80;63.90;;;;;;2087855;28;20470;-85
2023/10/12 03:39:12;;;;;;;9.67;4.47;;;16.70;63.90;;;;;;2085188;28;20953;-86
2023/10/12 03:42:54;;;;;;;8.87;4.37;;;16.60;64.30;;;;;;2082955;28;20457;-83
2023/10/12 03:44:04;;;;;;;8.93;4.00;;;16.60;63.90;;;;;;2088185;28;21017;-85
2023/10/12 03:45:08;;;;;;;6.67;3.70;;;16.60;63.60;;;;;;2085158;28;20454;-85
2023/10/12 03:46:18;;;;;;;6.83;3.90;;;16.70;63.60;;;;;;2085490;28;20419;-86
2023/10/12 03:48:25;;;;;;;10.87;3.97;;;16.70;63.00;;;;;;2101115;28;20469;-86
2023/10/12 03:49:32;;;;;;;9.93;4.03;;;16.70;62.30;;;;;;2095338;28;20230;-85
2023/10/12 03:50:50;;;;;;;7.73;4.23;;;16.70;62.80;;;;;;2094825;28;20457;-85
2023/10/12 03:51:57;;;;;;;6.97;3.73;;;16.60;62.40;;;;;;2080859;28;20962;-86
2023/10/12 03:52:59;;;;;;;6.67;3.80;;;16.70;61.90;;;;;;2078957;28;20470;-85
2023/10/12 03:54:11;;;;;;;6.87;3.97;;;16.70;61.90;;;;;;2077052;28;20474;-86
2023/10/12 03:56:43;;;;;;;8.50;4.20;;;16.70;61.10;;;;;;2070949;28;20466;-85
2023/10/12 03:57:59;;;;;;;7.23;4.00;;;16.70;61.80;;;;;;2085392;28;20465;-85
2023/10/12 03:59:06;;;;;;;7.67;3.90;;;16.70;61.80;;;;;;2074802;28;21024;-86
2023/10/12 04:01:13;;;;;;;10.90;4.50;;;16.70;61.60;;;;;;2087552;28;20495;-85
2023/10/12 04:02:15;;;;;;;10.50;4.60;;;16.60;61.30;;;;;;2088669;28;20563;-85
2023/10/12 04:03:18;;;;;;;7.53;4.53;;;16.50;61.60;;;;;;2089424;28;20936;-86
2023/10/12 04:04:34;;;;;;;7.43;3.93;;;16.50;61.60;;;;;;2089512;28;20814;-85
2023/10/12 04:05:38;;;;;;;11.27;4.53;;;16.60;61.50;;;;;;2089859;28;20468;-85
2023/10/12 04:09:14;;;;;;;5.03;4.17;;;16.70;60.70;;;;;;2091606;28;20471;-85
2023/10/12 04:10:41;;;;;;;7.13;4.30;;;16.60;61.70;;;;;;2075847;28;20430;-85
2023/10/12 04:11:48;;;;;;;7.53;4.40;;;16.60;60.90;;;;;;2072890;28;20458;-86
2023/10/12 04:12:54;;;;;;;8.13;4.00;;;16.60;60.60;;;;;;2090470;28;20468;-86
2023/10/12 04:14:55;;;;;;;6.83;4.23;;;16.60;60.50;;;;;;2086766;28;20485;-86
2023/10/12 04:17:08;;;;;;;5.90;4.03;;;16.60;60.30;;;;;;2074794;28;20225;-85
2023/10/12 04:18:13;;;;;;;6.37;4.10;;;16.60;60.30;;;;;;2081879;28;20418;-86
2023/10/12 04:19:29;;;;;;;6.17;4.00;;;16.60;60.20;;;;;;2075570;28;20967;-86
2023/10/12 04:20:33;;;;;;;5.63;4.00;;;16.70;60.00;;;;;;2087337;28;20558;-85
2023/10/12 04:21:37;;;;;;;7.37;4.50;;;16.60;60.60;;;;;;2071913;28;20478;-85
2023/10/12 04:24:48;;;;;;;10.17;4.20;;;16.50;60.90;;;;;;2092718;28;20476;-86
2023/10/12 04:25:49;;;;;;;8.53;4.17;;;16.40;61.10;;;;;;2091557;28;20273;-85
2023/10/12 04:28:32;;;;;;;7.57;4.13;;;16.40;61.20;;;;;;2088203;28;20453;-86
2023/10/12 04:29:32;;;;;;;6.20;3.77;;;16.40;61.60;;;;;;2088993;28;20835;-86
2023/10/12 04:30:35;;;;;;;8.53;3.90;;;16.40;61.30;;;;;;2093894;28;20512;-85
2023/10/12 04:31:49;;;;;;;9.20;4.37;;;16.30;61.40;;;;;;2082341;28;20311;-85
2023/10/12 04:34:04;;;;;;;8.03;4.40;;;16.50;61.10;;;;;;2089022;28;20493;-85
2023/10/12 04:35:15;;;;;;;6.00;3.70;;;16.40;61.70;;;;;;2088728;28;20211;-86
2023/10/12 04:37:50;;;;;;;7.43;4.40;;;16.30;61.60;;;;;;2070314;28;20884;-86
2023/10/12 04:38:58;;;;;;;8.87;4.53;;;16.40;60.70;;;;;;2074118;28;20554;-86
2023/10/12 04:40:14;;;;;;;5.83;3.77;;;16.40;61.00;;;;;;2081994;28;20223;-86
2023/10/12 04:42:23;;;;;;;6.50;4.10;;;16.40;60.70;;;;;;2075648;28;21001;-85
2023/10/12 04:43:24;;;;;;;7.67;4.43;;;16.40;60.30;;;;;;2078730;28;20633;-86
2023/10/12 04:45:27;;;;;;;6.43;4.00;;;16.50;60.00;;;;;;2085454;28;20239;-85
2023/10/12 04:46:30;;;;;;;7.20;4.07;;;16.50;59.80;;;;;;2091817;28;20223;-85
2023/10/12 04:47:31;;;;;;;5.73;4.07;;;16.40;59.90;;;;;;2083127;28;21072;-85
2023/10/12 04:48:31;;;;;;;8.07;4.73;;;16.50;60.40;;;;;;2082885;28;20532;-86
2023/10/12 04:50:52;;;;;;;8.33;4.60;;;16.40;61.40;;;;;;2082237;28;20322;-85
2023/10/12 04:53:14;;;;;;;7.30;4.43;;;16.30;61.50;;;;;;2089056;28;20516;-85
2023/10/12 04:54:23;;;;;;;6.60;4.43;;;16.30;61.60;;;;;;2083685;28;20429;-85
2023/10/12 04:55:28;;;;;;;6.73;4.57;;;16.20;62.00;;;;;;2076874;28;20520;-86
2023/10/12 04:56:30;;;;;;;8.70;4.80;;;16.10;62.20;;;;;;2083841;28;20465;-85
2023/10/12 04:57:32;;;;;;;7.50;4.37;;;16.10;62.60;;;;;;2087021;28;20504;-85
2023/10/12 04:58:36;;;;;;;9.80;4.90;;;16.10;62.70;;;;;;2092333;28;20470;-85
2023/10/12 05:00:55;;;;;;;7.33;4.17;;;16.20;62.60;;;;;;2082055;28;20466;-85
2023/10/12 05:03:23;;;;;;;10.40;4.53;;;16.20;62.70;;;;;;2092860;28;20464;-85
2023/10/12 05:04:36;;;;;;;7.60;4.43;;;16.10;62.90;;;;;;2097619;28;20478;-86
2023/10/12 05:05:57;;;;;;;8.27;4.53;;;16.10;63.30;;;;;;2084862;28;20479;-86
2023/10/12 05:08:11;;;;;;;7.77;4.00;;;16.10;63.20;;;;;;2085988;28;20515;-85
2023/10/12 05:09:12;;;;;;;10.07;4.70;;;16.10;63.00;;;;;;2086243;28;21011;-85
2023/10/12 05:10:15;;;;;;;8.60;4.33;;;16.10;62.70;;;;;;2074819;28;20204;-86
2023/10/12 05:11:16;;;;;;;7.97;4.30;;;16.10;62.60;;;;;;2076255;28;20430;-86
2023/10/12 05:12:25;;;;;;;8.40;4.33;;;16.10;62.90;;;;;;2076002;28;20469;-85
2023/10/12 05:13:27;;;;;;;7.17;4.47;;;16.10;63.30;;;;;;2092062;28;20227;-85
2023/10/12 05:14:28;;;;;;;7.30;4.70;;;16.00;63.40;;;;;;2091925;28;21062;-85
2023/10/12 05:15:42;;;;;;;7.70;4.57;;;16.00;63.50;;;;;;2081437;28;20477;-85
2023/10/12 05:16:43;;;;;;;7.20;4.40;;;16.00;63.60;;;;;;2063515;28;20479;-85
2023/10/12 05:17:44;;;;;;;6.83;4.77;;;16.10;63.60;;;;;;2074121;28;20502;-85
2023/10/12 05:18:47;;;;;;;6.53;4.40;;;16.10;63.50;;;;;;2085998;28;20685;-85
2023/10/12 05:19:47;;;;;;;10.40;4.60;;;16.10;63.60;;;;;;2072202;28;20222;-86
2023/10/12 05:20:48;;;;;;;8.90;4.60;;;16.10;63.50;;;;;;2084195;28;20476;-85
2023/10/12 05:21:49;;;;;;;6.27;4.30;;;16.10;63.60;;;;;;2082984;28;20217;-85
2023/10/12 05:22:49;;;;;;;7.33;4.47;;;16.10;63.70;;;;;;2078468;28;20225;-85
2023/10/12 05:23:50;;;;;;;7.90;4.60;;;16.00;63.70;;;;;;2084374;28;20607;-86
2023/10/12 05:24:52;;;;;;;7.37;4.80;;;16.10;63.60;;;;;;2073555;28;20248;-86
2023/10/12 05:25:54;;;;;;;6.17;4.40;;;16.20;63.10;;;;;;2085692;28;20220;-86
2023/10/12 05:27:06;;;;;;;8.00;5.13;;;16.20;62.60;;;;;;2085274;28;20458;-86
2023/10/12 05:28:13;;;;;;;11.10;5.00;;;16.20;62.10;;;;;;2072253;28;20465;-86
2023/10/12 05:30:26;;;;;;;7.30;4.80;;;16.30;61.90;;;;;;2085049;28;20472;-86
2023/10/12 05:31:28;;;;;;;10.53;5.03;;;16.30;61.70;;;;;;2096934;28;20520;-86
2023/10/12 05:32:42;;;;;;;8.03;4.80;;;16.30;61.70;;;;;;2085115;28;20476;-86
2023/10/12 05:34:00;;;;;;;8.53;4.77;;;16.30;61.70;;;;;;2077825;28;21001;-86
2023/10/12 05:35:04;;;;;;;8.23;4.40;;;16.40;61.80;;;;;;2073697;28;20544;-87
2023/10/12 05:36:10;;;;;;;7.70;4.17;;;16.40;61.80;;;;;;2087336;28;20453;-86
2023/10/12 05:38:18;;;;;;;9.17;4.70;;;16.40;61.80;;;;;;2083295;28;20513;-86
2023/10/12 05:39:20;;;;;;;5.73;4.80;;;16.30;61.80;;;;;;2086310;28;20425;-85
2023/10/12 05:40:21;;;;;;;6.70;4.30;;;16.40;62.10;;;;;;2080508;28;20422;-85
2023/10/12 05:42:39;;;;;;;7.03;4.90;;;16.50;61.60;;;;;;2092340;28;20318;-86
2023/10/12 05:43:40;;;;;;;7.53;4.77;;;16.40;61.80;;;;;;2096777;28;21332;-86
2023/10/12 05:44:43;;;;;;;13.10;5.60;;;16.40;61.70;;;;;;2084520;28;20481;-86
2023/10/12 05:45:45;;;;;;;9.93;4.30;;;16.50;61.50;;;;;;2086822;28;20233;-85
2023/10/12 05:46:50;;;;;;;9.00;4.70;;;16.60;60.90;;;;;;2084683;28;20480;-86
2023/10/12 05:47:52;;;;;;;7.97;4.77;;;16.60;60.70;;;;;;2085109;28;20472;-85
2023/10/12 05:48:54;;;;;;;7.37;4.73;;;16.60;60.50;;;;;;2085947;28;20476;-85
2023/10/12 05:49:57;;;;;;;15.43;4.97;;;16.70;60.40;;;;;;2077347;28;20454;-85
2023/10/12 05:50:57;;;;;;;6.93;4.47;;;16.60;61.60;;;;;;2077988;28;20465;-85
2023/10/12 05:52:03;;;;;;;9.97;5.07;;;16.70;60.60;;;;;;2084857;28;21135;-84
2023/10/12 05:53:07;;;;;;;8.57;4.57;;;16.60;60.90;;;;;;2077184;28;20784;-85
2023/10/12 05:54:07;;;;;;;8.57;4.80;;;16.60;60.90;;;;;;2082013;28;20448;-84
2023/10/12 05:55:23;;;;;;;6.63;4.40;;;16.60;61.10;;;;;;2073304;28;20423;-84
2023/10/12 05:56:24;;;;;;;7.57;4.97;;;16.60;61.60;;;;;;2077242;28;20225;-84
2023/10/12 05:57:29;;;;;;;8.43;4.50;;;16.50;61.70;;;;;;2082814;28;20485;-85
2023/10/12 05:58:32;;;;;;;9.53;4.97;;;16.60;62.10;;;;;;2074827;28;20229;-86
2023/10/12 05:59:33;;;;;;;8.00;4.67;;;16.60;62.00;;;;;;2075276;28;20498;-86
2023/10/12 06:00:36;;;;;;;6.77;4.73;;;16.60;61.60;;;;;;2076194;28;20850;-85
2023/10/12 06:01:37;;;;;;;10.27;5.47;;;16.60;62.50;;;;;;2074905;28;20229;-85
2023/10/12 06:02:38;;;;;;;9.10;4.83;;;16.50;63.10;;;;;;2090219;28;20453;-86
2023/10/12 06:03:39;;;;;;;10.00;4.60;;;16.50;63.10;;;;;;2092797;28;20473;-87
2023/10/12 06:04:41;;;;;;;9.13;5.73;;;16.50;63.40;;;;;;2094358;28;20226;-86
2023/10/12 06:05:45;;;;;;;7.63;5.20;;;16.50;63.40;;;;;;2090378;28;20648;-85
2023/10/12 06:06:47;;;;;;;7.87;5.10;;;16.50;64.00;;;;;;2083713;28;21003;-89
2023/10/12 06:07:48;;;;;;;15.77;8.60;;;16.50;64.00;;;;;;2084896;28;20565;-85
2023/10/12 06:08:52;;;;;;;13.90;8.00;;;16.50;63.70;;;;;;2069384;28;20535;-85
2023/10/12 06:09:53;;;;;;;17.47;7.97;;;16.50;63.60;;;;;;2077335;28;20898;-85
2023/10/12 06:10:54;;;;;;;14.03;7.73;;;16.50;63.40;;;;;;2081569;28;20473;-85
2023/10/12 06:11:56;;;;;;;13.57;7.30;;;16.60;63.00;;;;;;2089271;28;20219;-85
2023/10/12 06:12:56;;;;;;;12.67;7.07;;;16.70;62.80;;;;;;2079740;28;20875;-85
2023/10/12 06:13:59;;;;;;;13.30;6.40;;;16.80;62.30;;;;;;2077974;28;20474;-84
2023/10/12 06:15:00;;;;;;;9.23;5.20;;;16.80;62.90;;;;;;2077166;28;20287;-85
2023/10/12 06:16:01;;;;;;;7.47;5.17;;;16.70;63.10;;;;;;2075872;28;21376;-84
2023/10/12 06:17:02;;;;;;;10.27;5.43;;;16.70;64.00;;;;;;2084004;28;20459;-85
2023/10/12 06:18:03;;;;;;;10.20;6.07;;;16.70;64.70;;;;;;2085513;28;20668;-85
2023/10/12 06:19:05;;;;;;;8.50;5.67;;;16.70;64.30;;;;;;2078161;28;20418;-85
2023/10/12 06:20:11;;;;;;;8.53;4.90;;;16.80;64.70;;;;;;2075525;28;20208;-85